Impacts METAR Board
IDs:

KCVG - Cincinnati Intl, KY, US

Updated at: 1100 UTC 15 Dec 2018
Potential Impact None Slight Moderate High
Time 14/23Z 15/00Z 15/01Z 15/02Z 15/03Z 15/04Z 15/05Z 15/06Z 15/07Z 15/08Z 15/09Z 15/10Z 15/11Z
Temp52 50 48 48 48 48 48 49 48 48 48 48 49
Dewpt40 44 44 44 45 45 45 46 46 45 45 46 47
Altim30.07 30.06 30.03 30.01 29.99 29.99 29.96 30.05 29.99 29.98 29.96 29.92 29.89
VIS10 10 10 10 10 10 9 2.5 5 7 7 7 6
CIG100 100 100 95 95 7 7 6 4 5 6 5 4
CoverOVCOVCOVCOVCOVCOVCOVCOVCOVCOVCOVCOVCOVC
FltCatVFRVFRVFRVFRVFRIFRIFRIFRLIFRIFRIFRIFRLIFR
WX---RA-----------RA BR-RA BR------BR
WDir80807080605040804040504030
WSpd9 10 12 9 12 10 14 7 13 15 14 15 15
WGst-- -- -- -- -- -- -- -- -- -- -- -- --
Raw hourly METARs
KCVG 142252Z 08009KT 10SM FEW065 BKN100 OVC200 11/04 A3007 RMK AO2 SLP183 T01110044
KCVG 142352Z 08010KT 10SM -RA FEW075 OVC100 10/07 A3006 RMK AO2 RAB2259 SLP178 P0001 60001 T01000067 10128 20100 58002
KCVG 150052Z 07012KT 10SM BKN100 OVC200 09/07 A3003 RMK AO2 RAE09 SLP169 P0000 T00890067
KCVG 150152Z 08009KT 10SM FEW015 BKN095 OVC150 09/07 A3001 RMK AO2 SLP161 T00890067
KCVG 150252Z 06012KT 10SM FEW008 OVC095 09/07 A2999 RMK AO2 RAB20E42 SLP154 P0000 60000 T00890072 56023
KCVG 150352Z 05010KT 10SM OVC007 09/07 A2999 RMK AO2 SLP156 T00890072
KCVG 150452Z 04014KT 9SM OVC007 09/07 A2996 RMK AO2 PRESFR SLP143 T00890072 401280067
KCVG 150552Z 08007KT 2 1/2SM -RA BR OVC006 09/08 A3005 RMK AO2 RAB42 SLP174 P0000 60000 T00940078 10100 20089 53020
KCVG 150652Z 04013KT 5SM -RA BR OVC004 09/08 A2999 RMK AO2 SLP152 P0004 T00890078
KCVG 150752Z 04015KT 7SM OVC005 09/07 A2998 RMK AO2 RAE0656 SLP149 P0000 T00890072
KCVG 150852Z 05014KT 7SM OVC006 09/07 A2996 RMK AO2 SLP145 60004 T00890072 56029
KCVG 150952Z 04015KT 7SM OVC005 09/08 A2992 RMK AO2 RAB19E42 PRESFR SLP129 P0000 T00890078
KCVG 151052Z 03015KT 6SM BR OVC004 09/08 A2989 RMK AO2 SLP121 T00940083



Page loaded:  11:50 UTC  |   03:50 AM Pacific  |   04:50 AM Mountain  |   05:50 AM Central  |   06:50 AM Eastern

 

ADVISORIES

FORECASTS

FORECASTS

OBSERVATIONS

USER TOOLS

ABOUT US